Time;durP1;ratioP1;P1;durP2;ratioP2;P2;SDS_P1;SDS_P2;PMS_P1;PMS_P2;Temp;Humidity;BMP_temperature;BMP_pressure;BME280_temperature;BME280_humidity;BME280_pressure;Samples;Min_cycle;Max_cycle;Signal;HPM_P1;HPM_P2
2022/09/23 00:02:05;;;;;;;5.13;4.35;;;;;;;;;;10296996;28;20420;-83
2022/09/23 00:07:07;;;;;;;7.55;4.68;;;;;;;;;;10330020;28;20408;-82
2022/09/23 00:12:10;;;;;;;5.80;4.68;;;;;;;;;;10321852;28;20446;-83
2022/09/23 00:17:12;;;;;;;5.43;4.57;;;;;;;;;;10309830;28;20424;-83
2022/09/23 00:22:14;;;;;;;6.00;4.18;;;;;;;;;;10326550;28;20793;-82
2022/09/23 00:27:19;;;;;;;5.20;4.30;;;;;;;;;;10323160;28;20436;-83
2022/09/23 00:32:21;;;;;;;4.85;4.38;;;;;;;;;;10328482;28;20408;-83
2022/09/23 00:37:23;;;;;;;4.90;3.97;;;;;;;;;;10328701;28;20428;-81
2022/09/23 00:42:26;;;;;;;5.38;4.50;;;;;;;;;;10328273;28;20523;-82
2022/09/23 00:47:32;;;;;;;4.80;4.40;;;;;;;;;;10328198;28;20492;-83
2022/09/23 00:52:34;;;;;;;6.65;4.85;;;;;;;;;;10328349;28;20496;-83
2022/09/23 00:57:40;;;;;;;5.00;4.50;;;;;;;;;;10327929;28;20428;-83
2022/09/23 01:02:41;;;;;;;5.25;4.75;;;;;;;;;;10306533;28;20511;-83
2022/09/23 01:07:44;;;;;;;7.10;5.30;;;;;;;;;;10310846;28;20834;-83
2022/09/23 01:13:05;;;;;;;5.53;4.78;;;;;;;;;;10311869;28;20813;-82
2022/09/23 01:18:14;;;;;;;5.43;4.82;;;;;;;;;;10306772;28;20523;-81
2022/09/23 01:23:31;;;;;;;5.47;4.73;;;;;;;;;;10300126;28;20410;-83
2022/09/23 01:29:01;;;;;;;5.57;5.00;;;;;;;;;;10302991;28;20500;-83
2022/09/23 01:34:11;;;;;;;5.85;5.10;;;;;;;;;;10322906;28;20503;-82
2022/09/23 01:39:16;;;;;;;6.85;5.15;;;;;;;;;;10330149;28;20467;-82
2022/09/23 01:44:24;;;;;;;6.90;5.00;;;;;;;;;;10296292;28;20437;-83
2022/09/23 01:49:32;;;;;;;6.30;5.13;;;;;;;;;;10308249;28;20499;-83
2022/09/23 01:54:39;;;;;;;5.43;4.78;;;;;;;;;;10319032;28;20443;-82
2022/09/23 01:59:47;;;;;;;7.07;4.30;;;;;;;;;;10318991;28;20535;-83
2022/09/23 02:04:55;;;;;;;4.68;4.22;;;;;;;;;;10318561;28;20769;-83
2022/09/23 02:10:02;;;;;;;4.40;4.00;;;;;;;;;;10317830;28;20866;-83
2022/09/23 02:15:08;;;;;;;6.00;4.13;;;;;;;;;;10294348;28;20946;-83
2022/09/23 02:20:14;;;;;;;6.20;3.92;;;;;;;;;;10279496;28;20517;-83
2022/09/23 02:25:16;;;;;;;5.13;4.10;;;;;;;;;;10308318;28;20417;-83
2022/09/23 02:30:25;;;;;;;4.20;3.80;;;;;;;;;;10311319;28;20420;-82
2022/09/23 02:35:34;;;;;;;4.80;3.50;;;;;;;;;;10331625;28;20405;-82
2022/09/23 02:40:41;;;;;;;4.40;3.57;;;;;;;;;;10312918;28;20426;-83
2022/09/23 02:45:43;;;;;;;4.47;3.50;;;;;;;;;;10307350;28;20490;-82
2022/09/23 02:50:47;;;;;;;3.70;3.40;;;;;;;;;;10315602;28;20408;-83
2022/09/23 02:55:49;;;;;;;5.22;3.83;;;;;;;;;;10317903;28;20473;-82
2022/09/23 03:01:03;;;;;;;5.97;3.95;;;;;;;;;;10315755;28;20793;-83
2022/09/23 03:06:16;;;;;;;4.70;4.03;;;;;;;;;;10317568;28;20511;-83
2022/09/23 03:11:19;;;;;;;5.20;4.10;;;;;;;;;;10316331;28;20488;-83
2022/09/23 03:16:30;;;;;;;4.25;3.85;;;;;;;;;;10324758;28;20781;-83
2022/09/23 03:21:37;;;;;;;5.07;4.10;;;;;;;;;;10317831;28;20928;-83
2022/09/23 03:26:42;;;;;;;4.20;3.80;;;;;;;;;;10313252;28;20844;-83
2022/09/23 03:31:44;;;;;;;4.10;3.70;;;;;;;;;;10314079;28;20486;-82
2022/09/23 03:36:56;;;;;;;4.32;3.65;;;;;;;;;;10314100;28;20397;-83
2022/09/23 03:42:00;;;;;;;4.50;3.40;;;;;;;;;;10303547;28;20401;-82
2022/09/23 03:47:03;;;;;;;5.05;3.72;;;;;;;;;;10315690;28;20452;-82
2022/09/23 03:52:06;;;;;;;4.70;3.75;;;;;;;;;;10315577;28;20825;-82
2022/09/23 03:57:10;;;;;;;4.22;3.83;;;;;;;;;;10293442;28;20426;-83
2022/09/23 04:02:12;;;;;;;4.00;3.67;;;;;;;;;;10295437;28;20422;-82
2022/09/23 04:07:15;;;;;;;6.60;4.30;;;;;;;;;;10303414;28;20496;-82
2022/09/23 04:12:17;;;;;;;5.95;4.13;;;;;;;;;;10308936;28;20495;-83
2022/09/23 04:17:19;;;;;;;7.10;4.00;;;;;;;;;;10296695;28;20425;-81
2022/09/23 04:22:23;;;;;;;4.78;3.70;;;;;;;;;;10315559;28;20897;-81
2022/09/23 04:27:25;;;;;;;7.10;4.25;;;;;;;;;;10315395;28;20521;-82
2022/09/23 04:32:26;;;;;;;5.05;4.07;;;;;;;;;;10289385;28;20973;-81
2022/09/23 04:37:30;;;;;;;5.03;3.90;;;;;;;;;;10288445;28;20791;-82
2022/09/23 04:42:32;;;;;;;6.95;4.22;;;;;;;;;;10295460;28;21002;-82
2022/09/23 04:47:33;;;;;;;5.85;4.38;;;;;;;;;;10295445;28;20493;-84
2022/09/23 04:52:37;;;;;;;5.70;4.17;;;;;;;;;;10294024;28;21210;-82
2022/09/23 04:57:38;;;;;;;5.50;4.10;;;;;;;;;;10289625;28;20423;-82
2022/09/23 05:02:43;;;;;;;5.90;4.47;;;;;;;;;;10297952;28;20623;-83
2022/09/23 05:07:46;;;;;;;5.40;4.15;;;;;;;;;;10321048;28;20405;-82
2022/09/23 05:12:48;;;;;;;5.78;4.43;;;;;;;;;;10297630;28;20489;-84
2022/09/23 05:17:50;;;;;;;4.90;4.10;;;;;;;;;;10290909;28;21140;-83
2022/09/23 05:22:54;;;;;;;8.15;4.10;;;;;;;;;;10297946;28;20408;-82
2022/09/23 05:27:56;;;;;;;6.18;3.88;;;;;;;;;;10290730;28;20885;-82
2022/09/23 05:32:58;;;;;;;5.90;4.10;;;;;;;;;;10291608;28;20434;-83
2022/09/23 05:38:01;;;;;;;4.87;4.20;;;;;;;;;;10290900;28;20517;-82
2022/09/23 05:43:03;;;;;;;4.20;3.80;;;;;;;;;;10299116;28;20424;-83
2022/09/23 05:48:05;;;;;;;5.53;4.25;;;;;;;;;;10297895;28;20410;-83
2022/09/23 05:53:08;;;;;;;4.57;3.58;;;;;;;;;;10281659;28;20485;-83
2022/09/23 05:58:10;;;;;;;5.25;3.30;;;;;;;;;;10282774;28;20521;-83
2022/09/23 06:03:13;;;;;;;5.72;3.38;;;;;;;;;;10296990;28;20465;-83
2022/09/23 06:08:16;;;;;;;4.17;2.87;;;;;;;;;;10297112;28;20487;-82
2022/09/23 06:13:18;;;;;;;5.60;2.70;;;;;;;;;;10295550;28;20896;-82
2022/09/23 06:18:19;;;;;;;2.83;2.43;;;;;;;;;;10292829;28;20919;-83
2022/09/23 06:23:23;;;;;;;4.40;2.58;;;;;;;;;;10287082;28;20398;-83
2022/09/23 06:28:24;;;;;;;4.00;2.70;;;;;;;;;;10285585;28;20778;-83
2022/09/23 06:33:26;;;;;;;3.55;2.55;;;;;;;;;;10307311;28;21129;-83
2022/09/23 06:38:30;;;;;;;3.45;2.88;;;;;;;;;;10307907;28;20992;-82
2022/09/23 06:43:32;;;;;;;3.40;2.77;;;;;;;;;;10307635;28;20409;-83
2022/09/23 06:48:35;;;;;;;4.70;2.90;;;;;;;;;;10308206;28;20416;-83
2022/09/23 06:53:38;;;;;;;2.97;2.22;;;;;;;;;;10316942;28;20409;-80
2022/09/23 06:58:40;;;;;;;3.95;2.45;;;;;;;;;;10307317;28;20500;-82
2022/09/23 07:03:42;;;;;;;3.72;2.60;;;;;;;;;;10297063;28;20406;-82
2022/09/23 07:08:47;;;;;;;3.28;2.13;;;;;;;;;;10291380;28;20903;-82
2022/09/23 07:13:48;;;;;;;3.72;2.55;;;;;;;;;;10293974;28;20428;-81
2022/09/23 07:18:50;;;;;;;3.80;3.00;;;;;;;;;;10292715;28;20517;-82
2022/09/23 07:23:56;;;;;;;3.30;2.60;;;;;;;;;;10289351;28;20425;-82
2022/09/23 07:29:03;;;;;;;6.10;2.83;;;;;;;;;;10284583;28;20924;-83
2022/09/23 07:34:05;;;;;;;5.15;3.00;;;;;;;;;;10301251;28;20437;-83
2022/09/23 07:39:11;;;;;;;9.13;3.35;;;;;;;;;;10300539;28;20869;-83
2022/09/23 07:44:12;;;;;;;7.10;3.37;;;;;;;;;;10303884;28;20455;-83
2022/09/23 07:49:14;;;;;;;4.32;2.80;;;;;;;;;;10311769;28;20412;-83
2022/09/23 07:54:18;;;;;;;4.22;2.45;;;;;;;;;;10310380;28;20515;-83
2022/09/23 07:59:20;;;;;;;2.88;2.30;;;;;;;;;;10296468;28;20438;-84
2022/09/23 08:04:23;;;;;;;2.50;2.20;;;;;;;;;;10288586;28;20849;-84
2022/09/23 08:09:28;;;;;;;4.70;2.17;;;;;;;;;;10290849;28;20986;-84
2022/09/23 08:14:30;;;;;;;3.10;2.13;;;;;;;;;;10303471;28;20503;-84
2022/09/23 08:19:31;;;;;;;2.50;2.07;;;;;;;;;;10299444;28;20528;-85
2022/09/23 08:24:35;;;;;;;2.90;2.10;;;;;;;;;;10299724;28;20410;-84
2022/09/23 08:29:36;;;;;;;3.43;2.30;;;;;;;;;;10307747;28;20486;-84
2022/09/23 08:34:38;;;;;;;2.77;2.00;;;;;;;;;;10306477;28;20444;-84
2022/09/23 08:39:41;;;;;;;2.53;2.08;;;;;;;;;;10305450;28;20529;-84
2022/09/23 08:44:49;;;;;;;3.50;2.03;;;;;;;;;;10302576;28;21176;-85
2022/09/23 08:50:00;;;;;;;2.95;2.10;;;;;;;;;;10302162;28;20826;-84
2022/09/23 08:55:04;;;;;;;3.75;2.17;;;;;;;;;;10295987;28;20484;-84
2022/09/23 09:00:13;;;;;;;2.90;2.28;;;;;;;;;;11126783;23;20550;-83
2022/09/23 09:10:34;;;;;;;2.40;2.20;;;;;;;;;;10834491;22;20483;-93
2022/09/23 09:15:44;;;;;;;3.17;1.77;;;;;;;;;;10463122;28;20448;-88
2022/09/23 09:20:55;;;;;;;2.30;1.98;;;;;;;;;;10463443;28;20972;-91
2022/09/23 09:26:02;;;;;;;2.38;1.60;;;;;;;;;;10444236;28;20409;-90
2022/09/23 09:31:20;;;;;;;2.20;1.98;;;;;;;;;;10441923;28;20419;-91
2022/09/23 09:36:32;;;;;;;2.80;2.00;;;;;;;;;;10450352;28;20415;-87
2022/09/23 09:41:36;;;;;;;2.10;1.90;;;;;;;;;;10452619;28;20457;-89
2022/09/23 09:46:55;;;;;;;1.92;1.73;;;;;;;;;;10438602;28;20408;-89
2022/09/23 09:52:19;;;;;;;2.40;1.53;;;;;;;;;;10441729;28;20413;-89
2022/09/23 09:57:30;;;;;;;2.28;1.60;;;;;;;;;;10444563;28;20412;-90
2022/09/23 10:02:35;;;;;;;2.38;1.75;;;;;;;;;;10462053;28;20415;-89
2022/09/23 10:07:37;;;;;;;2.47;1.10;;;;;;;;;;10432642;28;20432;-90
2022/09/23 10:12:47;;;;;;;1.38;1.27;;;;;;;;;;10444161;28;20948;-90
2022/09/23 10:17:50;;;;;;;1.50;1.40;;;;;;;;;;10433438;28;20446;-90
2022/09/23 10:22:55;;;;;;;2.50;1.50;;;;;;;;;;10435217;28;20421;-89
2022/09/23 10:27:59;;;;;;;4.03;1.40;;;;;;;;;;10426395;28;20885;-89
2022/09/23 10:33:02;;;;;;;2.00;1.50;;;;;;;;;;10426392;28;20413;-88
2022/09/23 10:38:04;;;;;;;2.13;1.45;;;;;;;;;;10444261;28;20415;-90
2022/09/23 10:48:55;;;;;;;2.03;1.83;;;;;;;;;;10452347;28;20427;-89
2022/09/23 10:54:47;;;;;;;2.30;1.92;;;;;;;;;;10467382;28;20376;-89
2022/09/23 11:00:00;;;;;;;2.20;2.00;;;;;;;;;;10479065;28;20420;-83
2022/09/23 11:05:24;;;;;;;2.10;1.90;;;;;;;;;;10450614;28;20403;-90
2022/09/23 11:11:07;;;;;;;1.83;1.55;;;;;;;;;;10441496;28;20408;-88
2022/09/23 11:16:18;;;;;;;2.27;2.00;;;;;;;;;;10439374;28;20976;-88
2022/09/23 11:21:36;;;;;;;2.90;1.90;;;;;;;;;;10443074;28;20556;-88
2022/09/23 11:26:47;;;;;;;1.90;1.50;;;;;;;;;;10430662;28;20457;-89
2022/09/23 11:31:59;;;;;;;1.60;1.50;;;;;;;;;;10450298;28;20435;-89
2022/09/23 11:37:06;;;;;;;3.00;1.90;;;;;;;;;;10442155;28;20791;-89
2022/09/23 11:42:18;;;;;;;2.92;2.05;;;;;;;;;;10441765;28;20907;-88
2022/09/23 11:47:26;;;;;;;3.00;1.73;;;;;;;;;;10443274;28;20435;-89
2022/09/23 11:52:32;;;;;;;2.17;1.97;;;;;;;;;;10440630;28;20444;-87
2022/09/23 11:57:42;;;;;;;3.03;1.90;;;;;;;;;;10431681;28;20468;-87
2022/09/23 12:02:57;;;;;;;2.30;1.98;;;;;;;;;;10430020;28;20419;-88
2022/09/23 12:08:07;;;;;;;2.43;2.23;;;;;;;;;;10426748;28;20506;-89
2022/09/23 12:13:21;;;;;;;2.33;2.13;;;;;;;;;;10434875;28;20467;-93
2022/09/23 12:18:59;;;;;;;3.03;2.67;;;;;;;;;;10433248;28;20418;-89
2022/09/23 12:24:30;;;;;;;4.38;3.10;;;;;;;;;;10431264;28;20408;-90
2022/09/23 12:29:35;;;;;;;5.03;3.38;;;;;;;;;;10416473;28;20409;-90
2022/09/23 12:34:47;;;;;;;3.57;2.70;;;;;;;;;;10419598;28;20412;-87
2022/09/23 12:39:49;;;;;;;3.60;2.93;;;;;;;;;;10415066;28;20434;-91
2022/09/23 12:44:52;;;;;;;3.15;2.50;;;;;;;;;;10421462;28;20412;-90
2022/09/23 12:49:57;;;;;;;3.83;2.70;;;;;;;;;;10421414;28;20420;-92
2022/09/23 12:55:28;;;;;;;3.10;2.42;;;;;;;;;;10431675;28;20831;-92
2022/09/23 13:00:30;;;;;;;3.03;2.40;;;;;;;;;;10427788;28;20500;-93
2022/09/23 13:11:05;;;;;;;4.00;2.63;;;;;;;;;;10440908;28;20491;-92
2022/09/23 13:16:21;;;;;;;4.53;2.38;;;;;;;;;;10435633;28;20414;-90
2022/09/23 13:22:07;;;;;;;2.67;2.47;;;;;;;;;;10440456;28;20814;-94
2022/09/23 13:27:28;;;;;;;2.50;2.05;;;;;;;;;;10443344;28;20417;-93
2022/09/23 13:32:34;;;;;;;4.47;2.58;;;;;;;;;;10441112;28;20413;-93
2022/09/23 13:37:46;;;;;;;3.57;2.10;;;;;;;;;;10443887;28;20416;-87
2022/09/23 13:43:02;;;;;;;2.33;2.10;;;;;;;;;;10450969;28;20423;-89
2022/09/23 13:48:11;;;;;;;3.22;2.28;;;;;;;;;;10448984;28;20435;-89
2022/09/23 13:53:20;;;;;;;2.08;1.88;;;;;;;;;;10432162;28;20463;-89
2022/09/23 13:58:23;;;;;;;2.87;1.77;;;;;;;;;;10442795;28;20409;-89
2022/09/23 14:03:31;;;;;;;3.00;1.93;;;;;;;;;;10442472;28;20417;-90
2022/09/23 14:08:34;;;;;;;2.50;1.50;;;;;;;;;;10435943;28;20411;-89
2022/09/23 14:13:42;;;;;;;2.20;1.87;;;;;;;;;;10450737;28;20889;-87
2022/09/23 14:18:46;;;;;;;3.55;2.28;;;;;;;;;;10436667;28;20457;-95
2022/09/23 14:23:52;;;;;;;2.10;1.90;;;;;;;;;;10424301;28;20412;-89
2022/09/23 14:28:54;;;;;;;3.88;2.15;;;;;;;;;;10424604;28;20425;-91
2022/09/23 14:34:11;;;;;;;2.45;1.80;;;;;;;;;;10431552;28;20416;-91
2022/09/23 14:39:23;;;;;;;2.20;1.60;;;;;;;;;;10436548;28;20421;-90
2022/09/23 14:44:34;;;;;;;2.45;1.88;;;;;;;;;;10445975;28;21620;-91
2022/09/23 14:55:19;;;;;;;2.25;2.05;;;;;;;;;;10441975;28;20466;-91
2022/09/23 15:00:27;;;;;;;2.33;2.13;;;;;;;;;;10446295;28;20424;-91
2022/09/23 15:05:42;;;;;;;6.57;1.90;;;;;;;;;;10428589;28;20883;-91
2022/09/23 15:10:52;;;;;;;1.70;1.60;;;;;;;;;;10445023;28;20423;-90
2022/09/23 15:16:04;;;;;;;2.85;1.85;;;;;;;;;;10448273;28;20499;-89
2022/09/23 15:21:15;;;;;;;2.80;2.10;;;;;;;;;;10443767;28;20415;-90
2022/09/23 15:26:23;;;;;;;2.63;1.80;;;;;;;;;;10443248;28;20409;-90
2022/09/23 15:31:25;;;;;;;2.53;2.00;;;;;;;;;;10448650;28;20489;-90
2022/09/23 15:36:34;;;;;;;3.33;1.80;;;;;;;;;;10428902;28;20436;-90
2022/09/23 15:41:42;;;;;;;2.57;2.00;;;;;;;;;;10439747;28;20416;-89
2022/09/23 15:46:52;;;;;;;3.33;2.10;;;;;;;;;;10449383;28;20417;-90
2022/09/23 15:52:08;;;;;;;4.13;2.30;;;;;;;;;;10455186;28;20417;-89
2022/09/23 15:57:13;;;;;;;4.13;1.90;;;;;;;;;;10469109;28;21179;-89
2022/09/23 16:02:24;;;;;;;3.90;2.50;;;;;;;;;;10445784;28;20436;-88
2022/09/23 16:07:27;;;;;;;3.47;2.38;;;;;;;;;;10439841;28;20470;-90
2022/09/23 16:12:31;;;;;;;5.18;2.30;;;;;;;;;;10440784;28;20425;-90
2022/09/23 16:17:33;;;;;;;3.53;2.30;;;;;;;;;;10448550;28;20434;-88
2022/09/23 16:22:36;;;;;;;3.23;2.13;;;;;;;;;;10436488;28;20418;-91
2022/09/23 16:27:40;;;;;;;2.70;1.90;;;;;;;;;;10441732;28;20412;-79
2022/09/23 16:32:45;;;;;;;3.90;2.13;;;;;;;;;;10430903;28;20404;-91
2022/09/23 16:37:51;;;;;;;3.00;2.30;;;;;;;;;;10440268;28;20415;-92
2022/09/23 16:43:07;;;;;;;3.33;2.00;;;;;;;;;;10436335;28;20421;-96
2022/09/23 16:48:11;;;;;;;3.37;2.13;;;;;;;;;;10445825;28;20423;-94
2022/09/23 16:53:18;;;;;;;3.50;2.30;;;;;;;;;;10439602;28;20534;-90
2022/09/23 16:58:21;;;;;;;2.47;2.10;;;;;;;;;;10436514;28;20401;-88
2022/09/23 17:03:49;;;;;;;4.22;2.17;;;;;;;;;;10435378;28;20507;-93
2022/09/23 17:08:51;;;;;;;3.80;2.47;;;;;;;;;;10443036;28;20465;-92
2022/09/23 17:14:06;;;;;;;3.58;2.45;;;;;;;;;;10429503;28;20630;-91
2022/09/23 17:19:15;;;;;;;5.35;2.80;;;;;;;;;;10443673;28;20419;-93
2022/09/23 17:24:17;;;;;;;4.70;2.50;;;;;;;;;;10439715;28;20428;-91
2022/09/23 17:29:23;;;;;;;3.33;2.30;;;;;;;;;;10442554;28;20469;-92
2022/09/23 17:34:27;;;;;;;3.30;2.40;;;;;;;;;;10446495;28;20418;-92
2022/09/23 17:39:30;;;;;;;3.13;2.33;;;;;;;;;;10445000;28;20437;-92
2022/09/23 17:44:36;;;;;;;4.13;2.47;;;;;;;;;;10441889;28;20416;-92
2022/09/23 17:49:38;;;;;;;3.13;2.40;;;;;;;;;;10442049;28;20502;-90
2022/09/23 17:54:40;;;;;;;3.83;2.70;;;;;;;;;;10439264;28;20404;-91
2022/09/23 17:59:52;;;;;;;4.00;2.30;;;;;;;;;;10438747;28;20952;-89
2022/09/23 18:05:08;;;;;;;2.95;2.17;;;;;;;;;;10435448;28;20413;-91
2022/09/23 18:10:23;;;;;;;2.75;2.15;;;;;;;;;;10448944;28;20512;-91
2022/09/23 18:15:29;;;;;;;3.33;2.60;;;;;;;;;;10448531;28;20510;-90
2022/09/23 18:20:33;;;;;;;3.88;2.47;;;;;;;;;;10434620;28;20423;-88
2022/09/23 18:25:38;;;;;;;2.87;2.50;;;;;;;;;;10437784;28;20470;-89
2022/09/23 18:30:54;;;;;;;3.47;2.50;;;;;;;;;;10433775;28;20413;-90
2022/09/23 18:36:01;;;;;;;3.53;2.70;;;;;;;;;;10433842;28;21082;-91
2022/09/23 18:41:03;;;;;;;3.08;2.70;;;;;;;;;;10424004;28;20445;-90
2022/09/23 18:46:15;;;;;;;7.03;3.50;;;;;;;;;;10435977;28;20786;-90
2022/09/23 18:51:18;;;;;;;4.75;3.35;;;;;;;;;;10438800;28;20889;-90
2022/09/23 18:56:22;;;;;;;5.37;4.17;;;;;;;;;;10431416;28;20410;-95
2022/09/23 19:01:37;;;;;;;7.55;4.35;;;;;;;;;;10463007;28;20483;-95
2022/09/23 19:12:24;;;;;;;8.57;4.13;;;;;;;;;;10486704;28;20760;-95
2022/09/23 19:17:29;;;;;;;5.65;3.97;;;;;;;;;;10442001;28;20430;-96
2022/09/23 19:22:31;;;;;;;3.63;3.27;;;;;;;;;;10424350;28;20504;-94
2022/09/23 19:27:34;;;;;;;5.40;3.30;;;;;;;;;;10438300;28;20469;-95
2022/09/23 19:32:53;;;;;;;3.38;2.85;;;;;;;;;;10446511;28;20439;-95
2022/09/23 19:37:56;;;;;;;4.20;2.80;;;;;;;;;;10443195;28;20407;-95
2022/09/23 19:42:59;;;;;;;4.97;3.20;;;;;;;;;;10440210;28;20448;-94
2022/09/23 19:48:03;;;;;;;4.45;2.75;;;;;;;;;;10451826;28;20462;-95
2022/09/23 19:53:06;;;;;;;4.35;3.20;;;;;;;;;;10435171;28;20967;-94
2022/09/23 19:58:10;;;;;;;4.40;2.97;;;;;;;;;;10441470;28;20433;-94
2022/09/23 20:03:15;;;;;;;3.70;3.15;;;;;;;;;;10462569;28;20444;-94
2022/09/23 20:08:17;;;;;;;5.30;3.40;;;;;;;;;;10443378;28;20808;-96
2022/09/23 20:13:19;;;;;;;5.13;3.07;;;;;;;;;;10457832;28;20442;-94
2022/09/23 20:18:22;;;;;;;7.18;3.50;;;;;;;;;;10434924;28;20448;-94
2022/09/23 20:23:28;;;;;;;4.18;3.10;;;;;;;;;;10439555;28;20818;-94
2022/09/23 20:28:31;;;;;;;7.23;3.73;;;;;;;;;;10429363;28;20411;-96
2022/09/23 20:33:36;;;;;;;4.18;3.33;;;;;;;;;;10440215;28;20461;-93
2022/09/23 20:38:39;;;;;;;4.70;3.20;;;;;;;;;;10436185;28;20764;-94
2022/09/23 20:43:41;;;;;;;3.78;3.08;;;;;;;;;;10431936;28;20531;-93
2022/09/23 20:48:46;;;;;;;4.40;3.28;;;;;;;;;;10439353;28;20411;-93
2022/09/23 20:53:50;;;;;;;4.72;3.40;;;;;;;;;;10444516;28;20404;-93
2022/09/23 20:58:53;;;;;;;4.80;3.38;;;;;;;;;;10442274;28;20443;-93
2022/09/23 21:03:57;;;;;;;5.72;3.92;;;;;;;;;;10442800;28;20423;-95
2022/09/23 21:08:59;;;;;;;5.28;4.15;;;;;;;;;;10438940;28;20469;-95
2022/09/23 21:14:01;;;;;;;5.65;3.97;;;;;;;;;;10442906;28;20419;-94
2022/09/23 21:19:07;;;;;;;7.20;4.43;;;;;;;;;;10437549;28;20404;-96
2022/09/23 21:24:09;;;;;;;6.35;4.45;;;;;;;;;;10433041;28;20785;-93
2022/09/23 21:29:12;;;;;;;4.93;4.43;;;;;;;;;;10437849;28;20771;-93
2022/09/23 21:34:16;;;;;;;6.97;4.97;;;;;;;;;;10462691;28;20508;-95
2022/09/23 21:39:20;;;;;;;8.55;5.80;;;;;;;;;;10448307;28;20451;-94
2022/09/23 21:44:22;;;;;;;6.97;5.83;;;;;;;;;;10442143;28;20442;-94
2022/09/23 21:49:26;;;;;;;9.23;6.50;;;;;;;;;;10432005;28;20411;-95
2022/09/23 21:54:30;;;;;;;9.95;6.95;;;;;;;;;;10439581;28;22467;-95
2022/09/23 21:59:34;;;;;;;11.15;7.43;;;;;;;;;;10449725;28;20415;-95
2022/09/23 22:04:37;;;;;;;11.63;8.63;;;;;;;;;;10450322;28;20416;-94
2022/09/23 22:09:40;;;;;;;11.85;8.48;;;;;;;;;;10453795;28;20415;-95
2022/09/23 22:14:42;;;;;;;9.13;7.63;;;;;;;;;;10462404;28;20427;-94
2022/09/23 22:19:46;;;;;;;8.50;6.90;;;;;;;;;;10432001;28;20411;-95
2022/09/23 22:24:48;;;;;;;9.05;7.45;;;;;;;;;;10454396;28;20823;-96
2022/09/23 22:35:15;;;;;;;9.57;7.43;;;;;;;;;;10438365;28;20395;-95
2022/09/23 22:40:17;;;;;;;12.03;8.63;;;;;;;;;;10449254;28;20408;-94
2022/09/23 22:45:19;;;;;;;9.30;7.75;;;;;;;;;;10437318;28;20454;-94
2022/09/23 22:50:23;;;;;;;10.57;7.63;;;;;;;;;;10435246;28;20469;-96
2022/09/23 22:55:26;;;;;;;9.33;7.87;;;;;;;;;;10466933;28;20404;-94
2022/09/23 23:00:29;;;;;;;10.25;8.18;;;;;;;;;;10444695;28;20471;-95
2022/09/23 23:05:33;;;;;;;11.02;8.77;;;;;;;;;;10453028;28;20420;-96
2022/09/23 23:10:36;;;;;;;9.65;8.27;;;;;;;;;;10456469;28;20411;-94
2022/09/23 23:15:41;;;;;;;10.55;8.50;;;;;;;;;;10457302;28;20441;-95
2022/09/23 23:20:45;;;;;;;12.67;8.47;;;;;;;;;;10472625;28;20927;-96
2022/09/23 23:25:48;;;;;;;9.20;8.05;;;;;;;;;;10460018;28;20413;-96
2022/09/23 23:30:51;;;;;;;9.85;7.88;;;;;;;;;;10456563;28;20419;-96
2022/09/23 23:35:54;;;;;;;9.70;7.80;;;;;;;;;;10492891;28;20392;-94
2022/09/23 23:40:57;;;;;;;10.20;7.63;;;;;;;;;;10456902;28;20411;-95
2022/09/23 23:46:00;;;;;;;10.15;7.65;;;;;;;;;;10466880;28;20410;-95
2022/09/23 23:51:06;;;;;;;11.60;7.20;;;;;;;;;;10478806;28;20498;-94
2022/09/23 23:56:14;;;;;;;9.35;7.38;;;;;;;;;;10434126;28;20776;-95
